Time;durP1;ratioP1;P1;durP2;ratioP2;P2;SDS_P1;SDS_P2;PMS_P1;PMS_P2;Temp;Humidity;BMP_temperature;BMP_pressure;BME280_temperature;BME280_humidity;BME280_pressure;Samples;Min_cycle;Max_cycle;Signal;HPM_P1;HPM_P2
2021/03/31 07:06:22;;;;;;;9.75;6.50;;;;;;;;;;10585452;27;20346;-84
2021/03/31 07:11:41;;;;;;;11.48;7.47;;;;;;;;;;10582105;28;20070;-84
2021/03/31 07:17:08;;;;;;;9.93;7.18;;;;;;;;;;10583224;28;20023;-86
2021/03/31 07:22:43;;;;;;;10.13;7.65;;;;;;;;;;10582485;28;20099;-86
2021/03/31 07:33:28;;;;;;;11.05;7.72;;;;;;;;;;10541626;28;20029;-86
2021/03/31 07:38:35;;;;;;;12.10;8.57;;;;;;;;;;10582820;28;20027;-86
2021/03/31 07:49:15;;;;;;;11.10;7.38;;;;;;;;;;10591699;28;20385;-86
2021/03/31 07:54:29;;;;;;;10.30;7.57;;;;;;;;;;10597415;28;20039;-84
2021/03/31 07:59:50;;;;;;;11.48;6.78;;;;;;;;;;10600307;28;20143;-83
2021/03/31 08:04:51;;;;;;;10.35;7.70;;;;;;;;;;10584052;28;20056;-85
2021/03/31 08:10:12;;;;;;;10.18;7.38;;;;;;;;;;10586104;28;20032;-83
2021/03/31 08:15:38;;;;;;;10.77;7.50;;;;;;;;;;10572441;28;20058;-85
2021/03/31 08:21:34;;;;;;;8.40;5.72;;;;;;;;;;10557000;28;20566;-83
2021/03/31 08:26:58;;;;;;;8.95;5.45;;;;;;;;;;10551184;28;20081;-85
2021/03/31 08:32:08;;;;;;;8.43;6.18;;;;;;;;;;10553628;28;20032;-86
2021/03/31 08:37:33;;;;;;;9.43;5.75;;;;;;;;;;10552545;28;20020;-86
2021/03/31 08:42:35;;;;;;;11.25;8.13;;;;;;;;;;10548462;28;20034;-86
2021/03/31 08:47:44;;;;;;;7.72;6.03;;;;;;;;;;10550166;28;20024;-84
2021/03/31 08:52:53;;;;;;;;;;;;;;;;;;10553451;28;20024;-85
2021/03/31 08:57:55;;;;;;;8.82;6.30;;;;;;;;;;10551551;28;20362;-84
2021/03/31 09:03:25;;;;;;;10.68;9.38;;;;;;;;;;10549341;28;20119;-87
2021/03/31 09:08:27;;;;;;;10.30;8.20;;;;;;;;;;10547797;28;20050;-83
2021/03/31 09:13:30;;;;;;;13.05;9.65;;;;;;;;;;10553124;28;20032;-86
2021/03/31 09:18:31;;;;;;;14.20;9.73;;;;;;;;;;10552965;28;20024;-85
2021/03/31 09:23:51;;;;;;;13.38;10.25;;;;;;;;;;10562976;28;20047;-82
2021/03/31 09:28:52;;;;;;;14.30;10.32;;;;;;;;;;10566934;28;20083;-82
2021/03/31 09:33:57;;;;;;;12.55;8.15;;;;;;;;;;10577850;28;20021;-84
2021/03/31 09:38:58;;;;;;;9.23;6.65;;;;;;;;;;10571900;28;20041;-81
2021/03/31 09:44:05;;;;;;;12.68;7.80;;;;;;;;;;10577060;28;20035;-82
2021/03/31 09:49:06;;;;;;;11.07;7.82;;;;;;;;;;10560347;28;20035;-83
2021/03/31 09:54:07;;;;;;;18.05;9.40;;;;;;;;;;10562824;28;20101;-81
2021/03/31 09:59:08;;;;;;;10.90;8.07;;;;;;;;;;10560174;28;20052;-83
2021/03/31 10:04:10;;;;;;;11.15;8.32;;;;;;;;;;10551265;28;20036;-84
2021/03/31 10:09:17;;;;;;;12.60;8.68;;;;;;;;;;10550298;28;20115;-83
2021/03/31 10:14:20;;;;;;;13.77;7.65;;;;;;;;;;10555932;28;20024;-84
2021/03/31 10:19:21;;;;;;;7.97;6.55;;;;;;;;;;10550387;28;20032;-82
2021/03/31 10:24:35;;;;;;;7.82;6.28;;;;;;;;;;10550341;28;20469;-85
2021/03/31 10:35:18;;;;;;;9.52;6.00;;;;;;;;;;10582359;28;20016;-82
2021/03/31 10:51:29;;;;;;;9.50;5.55;;;;;;;;;;10548023;28;20016;-86
2021/03/31 10:56:31;;;;;;;6.70;5.45;;;;;;;;;;10549132;28;20028;-85
2021/03/31 11:01:32;;;;;;;9.63;6.20;;;;;;;;;;10550379;28;20030;-84
2021/03/31 11:06:33;;;;;;;9.18;5.40;;;;;;;;;;10548824;28;20375;-85
2021/03/31 11:11:34;;;;;;;6.20;4.32;;;;;;;;;;10556386;28;20020;-83
2021/03/31 11:16:40;;;;;;;8.60;4.90;;;;;;;;;;10557080;28;20115;-83
2021/03/31 11:27:19;;;;;;;9.30;4.43;;;;;;;;;;10557881;28;20083;-84
2021/03/31 11:32:45;;;;;;;7.40;4.70;;;;;;;;;;10556544;28;20064;-85
2021/03/31 11:37:46;;;;;;;6.50;4.65;;;;;;;;;;10555340;28;20050;-84
2021/03/31 11:42:53;;;;;;;5.88;5.07;;;;;;;;;;10550753;28;20051;-84
2021/03/31 11:47:55;;;;;;;6.32;5.03;;;;;;;;;;10557925;28;20362;-86
2021/03/31 12:21:42;;;;;;;8.57;4.97;;;;;;;;;;10630900;28;20015;-85
2021/03/31 13:01:09;;;;;;;4.50;3.13;;;;;;;;;;10510012;28;20025;-87
2021/03/31 13:06:41;;;;;;;4.95;2.83;;;;;;;;;;10382456;28;20034;-87
2021/03/31 13:34:14;;;;;;;4.32;2.60;;;;;;;;;;10485737;28;20556;-87
2021/03/31 13:39:52;;;;;;;5.70;3.30;;;;;;;;;;10598179;28;20023;-86
2021/03/31 13:44:46;;;;;;;4.63;3.22;;;;;;;;;;10608293;28;20024;-86
2021/03/31 13:49:54;;;;;;;5.80;3.10;;;;;;;;;;10570493;28;20393;-87
2021/03/31 13:54:59;;;;;;;5.88;3.67;;;;;;;;;;10570272;28;20445;-86
2021/03/31 14:00:07;;;;;;;4.85;3.13;;;;;;;;;;10588403;28;20454;-86
2021/03/31 14:05:09;;;;;;;4.80;3.00;;;;;;;;;;10568983;28;20081;-87
2021/03/31 14:10:10;;;;;;;4.07;2.80;;;;;;;;;;10568924;28;20391;-88
2021/03/31 14:15:18;;;;;;;5.88;2.65;;;;;;;;;;10586448;28;20088;-87
2021/03/31 14:20:28;;;;;;;8.30;3.15;;;;;;;;;;10569007;28;20135;-87
2021/03/31 14:25:33;;;;;;;5.45;2.80;;;;;;;;;;10586745;28;20495;-87
2021/03/31 14:30:34;;;;;;;5.72;3.30;;;;;;;;;;10569574;28;20034;-86
2021/03/31 14:35:35;;;;;;;6.68;3.20;;;;;;;;;;10568399;28;20046;-87
2021/03/31 14:40:36;;;;;;;6.28;3.17;;;;;;;;;;10567557;28;20027;-86
2021/03/31 14:45:59;;;;;;;6.75;3.35;;;;;;;;;;10566647;28;20508;-88
2021/03/31 14:51:03;;;;;;;9.75;2.80;;;;;;;;;;10571908;28;20028;-86
2021/03/31 15:01:10;;;;;;;5.15;2.90;;;;;;;;;;10585582;28;20034;-87
2021/03/31 15:06:11;;;;;;;4.30;2.78;;;;;;;;;;10584905;28;20370;-88
2021/03/31 15:11:12;;;;;;;6.43;2.97;;;;;;;;;;10574873;28;20019;-87
2021/03/31 15:16:13;;;;;;;4.55;2.67;;;;;;;;;;10629076;27;20019;-86
2021/03/31 15:21:56;;;;;;;4.78;2.05;;;;;;;;;;10609302;28;20035;-88
2021/03/31 15:26:44;;;;;;;6.93;3.08;;;;;;;;;;10614038;28;20035;-86
2021/03/31 15:31:45;;;;;;;5.45;2.30;;;;;;;;;;10605476;28;20103;-87
2021/03/31 15:36:46;;;;;;;6.93;2.60;;;;;;;;;;10617347;27;20020;-86
2021/03/31 15:41:47;;;;;;;8.25;2.60;;;;;;;;;;10619984;27;20015;-87
2021/03/31 15:46:52;;;;;;;7.25;3.88;;;;;;;;;;10586940;28;20073;-87
2021/03/31 15:51:53;;;;;;;6.47;3.10;;;;;;;;;;10574898;28;20024;-86
2021/03/31 15:56:55;;;;;;;7.78;3.20;;;;;;;;;;10575727;28;20031;-87
2021/03/31 16:01:57;;;;;;;6.05;3.00;;;;;;;;;;10575579;28;20020;-87
2021/03/31 16:12:17;;;;;;;9.15;3.65;;;;;;;;;;10600395;28;20102;-87
2021/03/31 16:17:18;;;;;;;8.25;4.07;;;;;;;;;;10572979;28;20059;-87
2021/03/31 16:22:19;;;;;;;7.30;3.80;;;;;;;;;;10573427;28;20076;-85
2021/03/31 16:27:21;;;;;;;6.97;3.65;;;;;;;;;;10575321;28;20146;-87
2021/03/31 16:32:29;;;;;;;7.03;3.90;;;;;;;;;;10575842;28;20034;-85
2021/03/31 16:37:31;;;;;;;10.55;3.85;;;;;;;;;;10574647;28;20624;-86
2021/03/31 16:42:32;;;;;;;6.38;3.50;;;;;;;;;;10572967;28;20032;-86
2021/03/31 16:47:33;;;;;;;4.15;2.88;;;;;;;;;;10573008;28;20544;-87
2021/03/31 16:52:34;;;;;;;5.65;3.40;;;;;;;;;;10572638;28;20123;-86
2021/03/31 16:57:35;;;;;;;4.88;3.17;;;;;;;;;;10572669;28;20123;-85
2021/03/31 17:02:36;;;;;;;4.78;2.85;;;;;;;;;;10571369;28;20466;-88
2021/03/31 17:07:37;;;;;;;7.97;3.72;;;;;;;;;;10571911;28;20027;-87
2021/03/31 17:12:38;;;;;;;5.82;3.58;;;;;;;;;;10572688;28;20118;-87
2021/03/31 17:17:39;;;;;;;6.97;5.18;;;;;;;;;;10571188;28;20031;-86
2021/03/31 17:22:40;;;;;;;6.03;4.30;;;;;;;;;;10570749;28;20280;-87
2021/03/31 17:27:41;;;;;;;8.00;4.90;;;;;;;;;;10597081;27;20080;-87
2021/03/31 17:32:46;;;;;;;7.60;4.72;;;;;;;;;;10571442;28;20084;-85
2021/03/31 17:43:33;;;;;;;6.88;5.95;;;;;;;;;;10561298;28;20066;-86
2021/03/31 17:49:36;;;;;;;7.68;5.45;;;;;;;;;;10516857;28;20104;-86
2021/03/31 17:54:39;;;;;;;6.43;5.28;;;;;;;;;;10472140;28;20035;-86
2021/03/31 18:00:13;;;;;;;9.57;7.05;;;;;;;;;;10491316;28;20017;-86
2021/03/31 18:05:52;;;;;;;7.38;6.68;;;;;;;;;;10503636;28;20043;-86
2021/03/31 18:22:41;;;;;;;6.35;5.70;;;;;;;;;;10504125;28;20482;-85
2021/03/31 18:28:15;;;;;;;14.95;13.55;;;;;;;;;;10424735;28;20084;-87
2021/03/31 18:33:19;;;;;;;10.50;7.30;;;;;;;;;;10506439;28;20105;-85
2021/03/31 18:38:27;;;;;;;11.75;8.40;;;;;;;;;;10519578;28;20040;-86
2021/03/31 18:43:41;;;;;;;10.75;8.60;;;;;;;;;;10504566;28;20398;-86
2021/03/31 18:48:46;;;;;;;14.00;11.68;;;;;;;;;;10489074;28;20032;-85
2021/03/31 18:53:50;;;;;;;13.77;12.38;;;;;;;;;;10515753;28;20041;-85
2021/03/31 18:59:29;;;;;;;16.70;11.68;;;;;;;;;;10550839;28;20391;-85
2021/03/31 19:04:37;;;;;;;10.15;7.95;;;;;;;;;;10501834;28;20068;-87
2021/03/31 19:15:02;;;;;;;10.02;8.18;;;;;;;;;;10528627;28;20036;-83
2021/03/31 19:20:16;;;;;;;9.70;6.95;;;;;;;;;;10542558;28;20016;-85
2021/03/31 19:25:20;;;;;;;14.52;9.23;;;;;;;;;;10507195;28;20026;-85
2021/03/31 19:30:41;;;;;;;6.85;6.03;;;;;;;;;;10467591;28;20101;-86
2021/03/31 19:35:43;;;;;;;14.00;11.57;;;;;;;;;;10517641;28;20024;-86
2021/03/31 19:40:46;;;;;;;14.85;9.52;;;;;;;;;;10541591;28;20037;-86
2021/03/31 19:45:58;;;;;;;13.55;8.65;;;;;;;;;;10519885;28;20033;-86
2021/03/31 19:51:05;;;;;;;8.10;6.85;;;;;;;;;;10499847;28;20115;-86
2021/03/31 19:56:06;;;;;;;8.35;6.32;;;;;;;;;;10516827;28;20039;-85
2021/03/31 20:01:20;;;;;;;7.88;6.70;;;;;;;;;;10465400;28;20040;-86
2021/03/31 20:06:33;;;;;;;8.43;7.13;;;;;;;;;;10499417;28;20067;-86
2021/03/31 20:12:11;;;;;;;12.65;7.55;;;;;;;;;;10503268;28;20044;-86
2021/03/31 20:17:12;;;;;;;;;;;;;;;;;;10488681;28;20059;-86
